Fairbanks, AK (99710)

4:47 PM AKDT on September 04, 2015 (GMT -0800)
APRSWXNET | | Change Station
CLOSE
Current Station
Personal Weather Station
Location: Fairbanks, AK
Elevation: 679 ft
Nearby Weather Stations

Elev 679 ft 64.88 °N, 147.60 °W | Updated 19 minutes ago

Clear
Clear
64 °F
Feels Like 64 °F
N
1
Wind Variable Wind from South
Gusts 4.0 mph

Today
High -- | Low -- °F
--% Chance of Precip.
Yesterday
High -- | Low -- °F
Precip. -- in
6:39 AM 8:57 PM
Waning Gibbous, 54% visible
Pressure 29.76 in
Visibility 10.0 miles
Clouds Clear
Dew Point 44 °F
Humidity 48%
Rainfall in
Snow Depth Not available.
UV 3 out of 12
Pollen Not available.
Air Quality Not available.
Flu Activity Not available.
METAR PAFB 042358Z AUTO 23005KT 10SM CLR 17/04 A2975 RMK AO2 SLP077 60000 T01680038 10170 20109 58001 $
Pressure 29.76 in
Visibility 10.0 miles
Clouds Clear
Dew Point 44 °F
Humidity 48%
Rainfall in
Snow Depth Not available.
UV 3 out of 12
Pollen Not available.
Air Quality Not available.
Flu Activity Not available.
METAR PAFB 042358Z AUTO 23005KT 10SM CLR 17/04 A2975 RMK AO2 SLP077 60000 T01680038 10170 20109 58001 $

10-Day Weather Forecast

×

Almanac

Astronomy

Sep. 04, 2015 Rise Set
Actual Time
Civil Twilight
Nautical Twilight
Astronomical Twilight
Moon
Length of Visible Light
Length of Day
Tomorrow will be .
, % of the Moon is Illuminated

Today's Extremes

State Highs State Lows

Community

WunderPhotos

Upload Photos

1,852,367 photos uploaded!

WunderBlogs® & News

Nearby

Air Quality

  Air Quality AQ Index Pollutant
Not available.

Snow Depth

Station Depth Elevation

Earthquake Activity

City Distance Mag. Time & Date
Minimum magnitude displayed is 2.5.

Coastal Water Temperatures

Place Temperature

Stations

Nearby Weather Stations

Station Location Temp. Windchill Dew Point Humidity Wind Precip. Elev Updated Type